sensor_id;sensor_type;location;lat;lon;timestamp;temperature;humidity
71837;DHT22;59686;51.716;7.016;2023-05-10T00:00:15;18.50;85.10
71837;DHT22;59686;51.716;7.016;2023-05-10T00:02:40;18.50;85.10
71837;DHT22;59686;51.716;7.016;2023-05-10T00:05:07;18.50;85.10
71837;DHT22;59686;51.716;7.016;2023-05-10T00:07:32;18.50;85.10
71837;DHT22;59686;51.716;7.016;2023-05-10T00:10:11;18.50;85.20
71837;DHT22;59686;51.716;7.016;2023-05-10T00:12:37;18.40;85.10
71837;DHT22;59686;51.716;7.016;2023-05-10T00:15:03;18.40;85.10
71837;DHT22;59686;51.716;7.016;2023-05-10T00:17:29;18.40;85.20
71837;DHT22;59686;51.716;7.016;2023-05-10T00:19:54;18.50;85.30
71837;DHT22;59686;51.716;7.016;2023-05-10T00:22:20;18.40;85.20
71837;DHT22;59686;51.716;7.016;2023-05-10T00:24:46;18.40;85.20
71837;DHT22;59686;51.716;7.016;2023-05-10T00:27:12;18.40;85.20
71837;DHT22;59686;51.716;7.016;2023-05-10T00:29:37;18.40;85.20
71837;DHT22;59686;51.716;7.016;2023-05-10T00:32:03;18.40;86.00
71837;DHT22;59686;51.716;7.016;2023-05-10T00:34:29;18.30;85.20
71837;DHT22;59686;51.716;7.016;2023-05-10T00:36:54;18.30;85.10
71837;DHT22;59686;51.716;7.016;2023-05-10T00:39:21;18.30;85.20
71837;DHT22;59686;51.716;7.016;2023-05-10T00:41:47;18.40;85.20
71837;DHT22;59686;51.716;7.016;2023-05-10T00:44:14;18.30;85.20
71837;DHT22;59686;51.716;7.016;2023-05-10T00:46:41;18.30;85.20
71837;DHT22;59686;51.716;7.016;2023-05-10T00:49:07;18.30;85.30
71837;DHT22;59686;51.716;7.016;2023-05-10T00:51:33;18.30;85.40
71837;DHT22;59686;51.716;7.016;2023-05-10T00:53:59;18.20;85.30
71837;DHT22;59686;51.716;7.016;2023-05-10T00:56:25;18.30;85.40
71837;DHT22;59686;51.716;7.016;2023-05-10T00:58:52;18.20;85.40
71837;DHT22;59686;51.716;7.016;2023-05-10T01:01:17;18.20;85.40
71837;DHT22;59686;51.716;7.016;2023-05-10T01:03:44;18.20;85.30
71837;DHT22;59686;51.716;7.016;2023-05-10T01:06:10;18.20;85.30
71837;DHT22;59686;51.716;7.016;2023-05-10T01:08:39;18.20;85.40
71837;DHT22;59686;51.716;7.016;2023-05-10T01:11:05;18.20;85.40
71837;DHT22;59686;51.716;7.016;2023-05-10T01:13:32;18.20;85.40
71837;DHT22;59686;51.716;7.016;2023-05-10T01:15:59;18.20;85.40
71837;DHT22;59686;51.716;7.016;2023-05-10T01:18:29;18.20;85.40
71837;DHT22;59686;51.716;7.016;2023-05-10T01:26:22;18.10;85.20
71837;DHT22;59686;51.716;7.016;2023-05-10T01:35:06;18.10;85.20
71837;DHT22;59686;51.716;7.016;2023-05-10T01:37:50;18.10;85.20
71837;DHT22;59686;51.716;7.016;2023-05-10T01:40:26;18.10;85.20
71837;DHT22;59686;51.716;7.016;2023-05-10T01:43:00;18.00;85.20
71837;DHT22;59686;51.716;7.016;2023-05-10T01:45:59;18.10;85.20
71837;DHT22;59686;51.716;7.016;2023-05-10T01:48:27;18.10;85.30
71837;DHT22;59686;51.716;7.016;2023-05-10T01:50:55;18.00;85.20
71837;DHT22;59686;51.716;7.016;2023-05-10T01:53:22;18.00;85.10
71837;DHT22;59686;51.716;7.016;2023-05-10T01:55:51;18.10;85.20
71837;DHT22;59686;51.716;7.016;2023-05-10T01:58:28;18.00;85.10
71837;DHT22;59686;51.716;7.016;2023-05-10T02:00:55;18.00;85.10
71837;DHT22;59686;51.716;7.016;2023-05-10T02:03:24;18.00;85.10
71837;DHT22;59686;51.716;7.016;2023-05-10T02:05:52;18.00;85.10
71837;DHT22;59686;51.716;7.016;2023-05-10T02:08:19;18.00;85.10
71837;DHT22;59686;51.716;7.016;2023-05-10T02:10:47;18.00;85.10
71837;DHT22;59686;51.716;7.016;2023-05-10T02:13:14;18.00;85.10
71837;DHT22;59686;51.716;7.016;2023-05-10T02:15:41;17.90;85.10
71837;DHT22;59686;51.716;7.016;2023-05-10T02:18:09;17.90;85.10
71837;DHT22;59686;51.716;7.016;2023-05-10T02:20:37;17.90;85.10
71837;DHT22;59686;51.716;7.016;2023-05-10T02:23:03;17.90;85.20
71837;DHT22;59686;51.716;7.016;2023-05-10T02:25:29;18.00;85.20
71837;DHT22;59686;51.716;7.016;2023-05-10T02:27:56;18.00;85.10
71837;DHT22;59686;51.716;7.016;2023-05-10T02:30:23;17.90;85.10
71837;DHT22;59686;51.716;7.016;2023-05-10T02:32:51;17.90;85.10
71837;DHT22;59686;51.716;7.016;2023-05-10T02:35:17;17.80;85.00
71837;DHT22;59686;51.716;7.016;2023-05-10T02:37:45;17.90;85.10
71837;DHT22;59686;51.716;7.016;2023-05-10T02:40:13;17.90;85.10
71837;DHT22;59686;51.716;7.016;2023-05-10T02:42:41;17.90;85.20
71837;DHT22;59686;51.716;7.016;2023-05-10T02:45:12;17.90;85.20
71837;DHT22;59686;51.716;7.016;2023-05-10T02:47:38;17.80;85.10
71837;DHT22;59686;51.716;7.016;2023-05-10T02:50:04;17.80;85.20
71837;DHT22;59686;51.716;7.016;2023-05-10T02:52:49;17.80;85.20
71837;DHT22;59686;51.716;7.016;2023-05-10T02:55:22;17.80;85.30
71837;DHT22;59686;51.716;7.016;2023-05-10T02:57:59;17.80;85.20
71837;DHT22;59686;51.716;7.016;2023-05-10T03:00:25;17.80;85.30
71837;DHT22;59686;51.716;7.016;2023-05-10T03:02:52;17.80;85.40
71837;DHT22;59686;51.716;7.016;2023-05-10T03:05:18;17.80;85.40
71837;DHT22;59686;51.716;7.016;2023-05-10T03:07:45;17.80;85.50
71837;DHT22;59686;51.716;7.016;2023-05-10T03:10:11;17.70;85.40
71837;DHT22;59686;51.716;7.016;2023-05-10T03:15:47;17.70;85.30
71837;DHT22;59686;51.716;7.016;2023-05-10T03:18:29;17.70;85.30
71837;DHT22;59686;51.716;7.016;2023-05-10T03:21:03;17.70;85.30
71837;DHT22;59686;51.716;7.016;2023-05-10T03:23:35;17.70;85.40
71837;DHT22;59686;51.716;7.016;2023-05-10T03:26:04;17.70;85.50
71837;DHT22;59686;51.716;7.016;2023-05-10T03:28:33;17.70;85.50
71837;DHT22;59686;51.716;7.016;2023-05-10T03:30:59;17.70;85.50
71837;DHT22;59686;51.716;7.016;2023-05-10T03:33:25;17.70;85.60
71837;DHT22;59686;51.716;7.016;2023-05-10T03:35:53;17.70;85.50
71837;DHT22;59686;51.716;7.016;2023-05-10T03:38:18;17.60;85.60
71837;DHT22;59686;51.716;7.016;2023-05-10T03:40:44;17.60;85.50
71837;DHT22;59686;51.716;7.016;2023-05-10T03:43:10;17.60;85.60
71837;DHT22;59686;51.716;7.016;2023-05-10T03:45:38;17.60;85.60
71837;DHT22;59686;51.716;7.016;2023-05-10T03:48:10;17.60;85.60
71837;DHT22;59686;51.716;7.016;2023-05-10T03:50:36;17.60;85.60
71837;DHT22;59686;51.716;7.016;2023-05-10T03:53:02;17.60;85.60
71837;DHT22;59686;51.716;7.016;2023-05-10T03:55:28;17.60;85.60
71837;DHT22;59686;51.716;7.016;2023-05-10T03:57:56;17.60;85.70
71837;DHT22;59686;51.716;7.016;2023-05-10T04:00:22;17.60;85.70
71837;DHT22;59686;51.716;7.016;2023-05-10T04:02:48;17.60;85.70
71837;DHT22;59686;51.716;7.016;2023-05-10T04:05:13;17.50;85.70
71837;DHT22;59686;51.716;7.016;2023-05-10T04:07:39;17.60;85.80
71837;DHT22;59686;51.716;7.016;2023-05-10T04:10:05;17.60;85.80
71837;DHT22;59686;51.716;7.016;2023-05-10T04:12:31;17.50;85.70
71837;DHT22;59686;51.716;7.016;2023-05-10T04:14:56;17.40;85.70
71837;DHT22;59686;51.716;7.016;2023-05-10T04:17:22;17.50;85.80
71837;DHT22;59686;51.716;7.016;2023-05-10T04:19:48;17.50;85.80
71837;DHT22;59686;51.716;7.016;2023-05-10T04:22:13;17.50;85.80
71837;DHT22;59686;51.716;7.016;2023-05-10T04:24:39;17.50;85.80
71837;DHT22;59686;51.716;7.016;2023-05-10T04:27:05;17.50;85.80
71837;DHT22;59686;51.716;7.016;2023-05-10T04:29:30;17.50;85.90
71837;DHT22;59686;51.716;7.016;2023-05-10T04:31:56;17.40;85.80
71837;DHT22;59686;51.716;7.016;2023-05-10T04:34:33;17.50;86.70
71837;DHT22;59686;51.716;7.016;2023-05-10T04:36:59;17.50;85.90
71837;DHT22;59686;51.716;7.016;2023-05-10T04:39:29;17.50;85.90
71837;DHT22;59686;51.716;7.016;2023-05-10T04:41:55;17.40;85.90
71837;DHT22;59686;51.716;7.016;2023-05-10T04:44:23;17.30;86.00
71837;DHT22;59686;51.716;7.016;2023-05-10T04:46:49;17.40;86.00
71837;DHT22;59686;51.716;7.016;2023-05-10T04:49:15;17.40;86.00
71837;DHT22;59686;51.716;7.016;2023-05-10T04:51:51;17.40;86.10
71837;DHT22;59686;51.716;7.016;2023-05-10T04:54:19;17.40;86.00
71837;DHT22;59686;51.716;7.016;2023-05-10T04:56:45;17.30;86.00
71837;DHT22;59686;51.716;7.016;2023-05-10T04:59:10;17.40;86.10
71837;DHT22;59686;51.716;7.016;2023-05-10T05:01:36;17.40;86.10
71837;DHT22;59686;51.716;7.016;2023-05-10T05:04:03;17.30;86.00
71837;DHT22;59686;51.716;7.016;2023-05-10T05:06:29;17.40;86.00
71837;DHT22;59686;51.716;7.016;2023-05-10T05:08:54;17.40;86.20
71837;DHT22;59686;51.716;7.016;2023-05-10T05:11:20;17.40;86.10
71837;DHT22;59686;51.716;7.016;2023-05-10T05:13:46;17.40;86.20
71837;DHT22;59686;51.716;7.016;2023-05-10T05:16:13;17.30;86.20
71837;DHT22;59686;51.716;7.016;2023-05-10T05:18:39;17.30;86.20
71837;DHT22;59686;51.716;7.016;2023-05-10T05:21:18;17.30;86.20
71837;DHT22;59686;51.716;7.016;2023-05-10T05:23:44;17.30;86.30
71837;DHT22;59686;51.716;7.016;2023-05-10T05:26:10;17.30;86.20
71837;DHT22;59686;51.716;7.016;2023-05-10T05:28:36;17.30;86.20
71837;DHT22;59686;51.716;7.016;2023-05-10T05:31:06;17.30;86.30
71837;DHT22;59686;51.716;7.016;2023-05-10T05:33:33;17.30;86.30
71837;DHT22;59686;51.716;7.016;2023-05-10T05:36:03;17.30;86.40
71837;DHT22;59686;51.716;7.016;2023-05-10T05:38:36;17.30;86.40
71837;DHT22;59686;51.716;7.016;2023-05-10T05:41:03;17.30;86.40
71837;DHT22;59686;51.716;7.016;2023-05-10T05:43:28;17.30;86.40
71837;DHT22;59686;51.716;7.016;2023-05-10T05:45:54;17.20;86.40
71837;DHT22;59686;51.716;7.016;2023-05-10T05:48:20;17.10;86.40
71837;DHT22;59686;51.716;7.016;2023-05-10T05:50:46;17.20;86.50
71837;DHT22;59686;51.716;7.016;2023-05-10T05:53:12;17.20;86.50
71837;DHT22;59686;51.716;7.016;2023-05-10T05:55:37;17.10;86.50
71837;DHT22;59686;51.716;7.016;2023-05-10T05:58:03;17.20;86.50
71837;DHT22;59686;51.716;7.016;2023-05-10T06:00:29;17.20;86.50
71837;DHT22;59686;51.716;7.016;2023-05-10T06:02:54;17.20;86.50
71837;DHT22;59686;51.716;7.016;2023-05-10T06:05:20;17.20;86.50
71837;DHT22;59686;51.716;7.016;2023-05-10T06:07:46;17.20;86.60
71837;DHT22;59686;51.716;7.016;2023-05-10T06:10:12;17.20;86.60
71837;DHT22;59686;51.716;7.016;2023-05-10T06:12:37;17.20;86.60
71837;DHT22;59686;51.716;7.016;2023-05-10T06:15:03;17.20;86.60
71837;DHT22;59686;51.716;7.016;2023-05-10T06:17:30;17.20;86.60
71837;DHT22;59686;51.716;7.016;2023-05-10T06:19:56;17.20;86.60
71837;DHT22;59686;51.716;7.016;2023-05-10T06:22:22;17.10;86.60
71837;DHT22;59686;51.716;7.016;2023-05-10T06:24:48;17.10;87.00
71837;DHT22;59686;51.716;7.016;2023-05-10T06:27:14;17.10;86.60
71837;DHT22;59686;51.716;7.016;2023-05-10T06:29:40;17.00;86.60
71837;DHT22;59686;51.716;7.016;2023-05-10T06:32:06;17.20;86.70
71837;DHT22;59686;51.716;7.016;2023-05-10T06:34:31;17.10;86.70
71837;DHT22;59686;51.716;7.016;2023-05-10T06:36:57;17.10;86.70
71837;DHT22;59686;51.716;7.016;2023-05-10T06:39:23;17.10;86.80
71837;DHT22;59686;51.716;7.016;2023-05-10T06:41:49;17.10;86.70
71837;DHT22;59686;51.716;7.016;2023-05-10T06:44:14;17.10;86.90
71837;DHT22;59686;51.716;7.016;2023-05-10T06:46:40;17.10;86.80
71837;DHT22;59686;51.716;7.016;2023-05-10T06:49:06;17.20;86.90
71837;DHT22;59686;51.716;7.016;2023-05-10T06:51:32;17.10;86.90
71837;DHT22;59686;51.716;7.016;2023-05-10T06:53:58;17.10;86.90
71837;DHT22;59686;51.716;7.016;2023-05-10T06:56:31;17.10;86.90
71837;DHT22;59686;51.716;7.016;2023-05-10T06:58:57;17.10;86.80
71837;DHT22;59686;51.716;7.016;2023-05-10T07:01:23;17.10;87.00
71837;DHT22;59686;51.716;7.016;2023-05-10T07:03:48;17.10;87.00
71837;DHT22;59686;51.716;7.016;2023-05-10T07:06:14;17.20;87.20
71837;DHT22;59686;51.716;7.016;2023-05-10T07:08:45;17.00;86.90
71837;DHT22;59686;51.716;7.016;2023-05-10T07:11:10;17.10;87.10
71837;DHT22;59686;51.716;7.016;2023-05-10T07:13:36;17.10;87.00
71837;DHT22;59686;51.716;7.016;2023-05-10T07:16:04;17.10;87.10
71837;DHT22;59686;51.716;7.016;2023-05-10T07:18:31;17.20;87.30
71837;DHT22;59686;51.716;7.016;2023-05-10T07:20:57;17.10;87.30
71837;DHT22;59686;51.716;7.016;2023-05-10T07:23:23;17.20;87.20
71837;DHT22;59686;51.716;7.016;2023-05-10T07:25:50;17.10;87.30
71837;DHT22;59686;51.716;7.016;2023-05-10T07:28:17;17.20;87.40
71837;DHT22;59686;51.716;7.016;2023-05-10T07:30:43;17.20;87.40
71837;DHT22;59686;51.716;7.016;2023-05-10T07:33:10;17.20;87.60
71837;DHT22;59686;51.716;7.016;2023-05-10T07:35:37;17.30;87.60
71837;DHT22;59686;51.716;7.016;2023-05-10T07:38:02;17.20;87.60
71837;DHT22;59686;51.716;7.016;2023-05-10T07:40:28;17.20;87.80
71837;DHT22;59686;51.716;7.016;2023-05-10T07:42:54;17.10;88.30
71837;DHT22;59686;51.716;7.016;2023-05-10T07:45:20;17.10;87.80
71837;DHT22;59686;51.716;7.016;2023-05-10T07:47:46;17.10;87.70
71837;DHT22;59686;51.716;7.016;2023-05-10T07:50:12;17.10;87.60
71837;DHT22;59686;51.716;7.016;2023-05-10T07:52:37;17.20;87.60
71837;DHT22;59686;51.716;7.016;2023-05-10T07:55:03;17.10;87.70
71837;DHT22;59686;51.716;7.016;2023-05-10T07:57:29;17.10;87.80
71837;DHT22;59686;51.716;7.016;2023-05-10T07:59:55;17.20;87.80
71837;DHT22;59686;51.716;7.016;2023-05-10T08:02:20;17.10;87.60
71837;DHT22;59686;51.716;7.016;2023-05-10T08:04:46;17.20;87.70
71837;DHT22;59686;51.716;7.016;2023-05-10T08:07:11;17.20;87.60
71837;DHT22;59686;51.716;7.016;2023-05-10T08:09:37;17.20;88.20
71837;DHT22;59686;51.716;7.016;2023-05-10T08:12:03;17.10;87.40
71837;DHT22;59686;51.716;7.016;2023-05-10T08:14:31;17.20;87.50
71837;DHT22;59686;51.716;7.016;2023-05-10T08:16:57;17.20;87.50
71837;DHT22;59686;51.716;7.016;2023-05-10T08:19:22;17.10;87.30
71837;DHT22;59686;51.716;7.016;2023-05-10T08:21:49;17.20;87.40
71837;DHT22;59686;51.716;7.016;2023-05-10T08:24:14;17.20;87.30
71837;DHT22;59686;51.716;7.016;2023-05-10T08:26:40;17.20;87.30
71837;DHT22;59686;51.716;7.016;2023-05-10T08:29:06;17.20;88.00
71837;DHT22;59686;51.716;7.016;2023-05-10T08:31:41;17.20;87.20
71837;DHT22;59686;51.716;7.016;2023-05-10T08:34:06;17.30;87.20
71837;DHT22;59686;51.716;7.016;2023-05-10T08:36:32;17.20;87.10
71837;DHT22;59686;51.716;7.016;2023-05-10T08:38:58;17.10;87.10
71837;DHT22;59686;51.716;7.016;2023-05-10T08:41:24;17.20;87.20
71837;DHT22;59686;51.716;7.016;2023-05-10T08:43:52;17.20;87.40
71837;DHT22;59686;51.716;7.016;2023-05-10T08:46:19;17.20;87.30
71837;DHT22;59686;51.716;7.016;2023-05-10T08:48:46;17.10;87.20
71837;DHT22;59686;51.716;7.016;2023-05-10T08:51:15;17.20;87.20
71837;DHT22;59686;51.716;7.016;2023-05-10T08:53:43;17.20;87.30
71837;DHT22;59686;51.716;7.016;2023-05-10T08:56:09;17.20;87.20
71837;DHT22;59686;51.716;7.016;2023-05-10T08:58:36;17.20;87.30
71837;DHT22;59686;51.716;7.016;2023-05-10T09:01:02;17.30;87.20
71837;DHT22;59686;51.716;7.016;2023-05-10T09:03:29;17.20;87.00
71837;DHT22;59686;51.716;7.016;2023-05-10T09:05:55;17.30;87.00
71837;DHT22;59686;51.716;7.016;2023-05-10T09:08:24;17.30;86.90
71837;DHT22;59686;51.716;7.016;2023-05-10T09:10:52;17.30;87.10
71837;DHT22;59686;51.716;7.016;2023-05-10T09:13:19;17.20;87.00
71837;DHT22;59686;51.716;7.016;2023-05-10T09:15:46;17.20;86.90
71837;DHT22;59686;51.716;7.016;2023-05-10T09:18:12;17.20;86.90
71837;DHT22;59686;51.716;7.016;2023-05-10T09:20:38;17.10;86.80
71837;DHT22;59686;51.716;7.016;2023-05-10T09:23:05;17.20;86.80
71837;DHT22;59686;51.716;7.016;2023-05-10T09:25:31;17.20;87.00
71837;DHT22;59686;51.716;7.016;2023-05-10T09:27:59;17.20;86.90
71837;DHT22;59686;51.716;7.016;2023-05-10T09:30:30;17.20;86.90
71837;DHT22;59686;51.716;7.016;2023-05-10T09:32:57;17.20;87.00
71837;DHT22;59686;51.716;7.016;2023-05-10T09:35:25;17.20;86.90
71837;DHT22;59686;51.716;7.016;2023-05-10T09:37:53;17.20;86.80
71837;DHT22;59686;51.716;7.016;2023-05-10T09:40:26;17.20;86.80
71837;DHT22;59686;51.716;7.016;2023-05-10T09:42:53;17.20;87.00
71837;DHT22;59686;51.716;7.016;2023-05-10T09:45:20;17.20;87.50
71837;DHT22;59686;51.716;7.016;2023-05-10T09:47:46;17.20;87.50
71837;DHT22;59686;51.716;7.016;2023-05-10T09:50:12;17.20;87.60
71837;DHT22;59686;51.716;7.016;2023-05-10T09:52:50;17.10;88.00
71837;DHT22;59686;51.716;7.016;2023-05-10T09:55:18;17.20;88.00
71837;DHT22;59686;51.716;7.016;2023-05-10T09:57:46;17.10;87.80
71837;DHT22;59686;51.716;7.016;2023-05-10T10:00:19;17.10;87.80
71837;DHT22;59686;51.716;7.016;2023-05-10T10:02:59;17.10;87.70
71837;DHT22;59686;51.716;7.016;2023-05-10T10:05:35;17.20;87.80
71837;DHT22;59686;51.716;7.016;2023-05-10T10:08:04;17.10;87.70
71837;DHT22;59686;51.716;7.016;2023-05-10T10:10:31;17.10;87.50
71837;DHT22;59686;51.716;7.016;2023-05-10T10:12:57;17.10;87.50
71837;DHT22;59686;51.716;7.016;2023-05-10T10:15:24;17.10;87.30
71837;DHT22;59686;51.716;7.016;2023-05-10T10:18:00;17.20;87.40
71837;DHT22;59686;51.716;7.016;2023-05-10T10:20:27;17.30;87.20
71837;DHT22;59686;51.716;7.016;2023-05-10T10:22:53;17.20;87.10
71837;DHT22;59686;51.716;7.016;2023-05-10T10:25:20;17.30;87.10
71837;DHT22;59686;51.716;7.016;2023-05-10T10:27:59;17.20;87.10
71837;DHT22;59686;51.716;7.016;2023-05-10T10:30:47;17.10;86.90
71837;DHT22;59686;51.716;7.016;2023-05-10T10:33:51;17.20;86.90
71837;DHT22;59686;51.716;7.016;2023-05-10T10:36:21;17.20;86.90
71837;DHT22;59686;51.716;7.016;2023-05-10T10:41:35;17.10;86.60
71837;DHT22;59686;51.716;7.016;2023-05-10T10:49:30;17.30;86.60
71837;DHT22;59686;51.716;7.016;2023-05-10T10:55:12;17.20;86.40
71837;DHT22;59686;51.716;7.016;2023-05-10T11:00:25;17.30;86.40
71837;DHT22;59686;51.716;7.016;2023-05-10T11:03:10;17.30;86.20
71837;DHT22;59686;51.716;7.016;2023-05-10T11:05:44;17.20;86.20
71837;DHT22;59686;51.716;7.016;2023-05-10T11:08:29;17.30;86.10
71837;DHT22;59686;51.716;7.016;2023-05-10T11:13:44;17.40;86.10
71837;DHT22;59686;51.716;7.016;2023-05-10T11:16:21;17.40;86.00
71837;DHT22;59686;51.716;7.016;2023-05-10T11:18:53;17.40;86.00
71837;DHT22;59686;51.716;7.016;2023-05-10T11:21:20;17.40;86.00
71837;DHT22;59686;51.716;7.016;2023-05-10T11:26:13;17.30;85.80
71837;DHT22;59686;51.716;7.016;2023-05-10T11:28:46;17.40;85.80
71837;DHT22;59686;51.716;7.016;2023-05-10T11:31:16;17.30;85.60
71837;DHT22;59686;51.716;7.016;2023-05-10T11:33:50;17.30;85.60
71837;DHT22;59686;51.716;7.016;2023-05-10T11:36:19;17.30;85.60
71837;DHT22;59686;51.716;7.016;2023-05-10T11:38:46;17.30;85.60
71837;DHT22;59686;51.716;7.016;2023-05-10T11:41:12;17.30;85.70
71837;DHT22;59686;51.716;7.016;2023-05-10T11:43:42;17.30;85.60
71837;DHT22;59686;51.716;7.016;2023-05-10T11:46:12;17.30;85.50
71837;DHT22;59686;51.716;7.016;2023-05-10T11:48:39;17.30;85.40
71837;DHT22;59686;51.716;7.016;2023-05-10T11:51:08;17.40;85.30
71837;DHT22;59686;51.716;7.016;2023-05-10T11:53:34;17.40;85.20
71837;DHT22;59686;51.716;7.016;2023-05-10T11:56:11;17.40;85.00
71837;DHT22;59686;51.716;7.016;2023-05-10T11:58:39;17.40;84.90
71837;DHT22;59686;51.716;7.016;2023-05-10T12:01:07;17.40;84.90
71837;DHT22;59686;51.716;7.016;2023-05-10T12:03:34;17.40;84.80
71837;DHT22;59686;51.716;7.016;2023-05-10T12:06:01;17.50;84.80
71837;DHT22;59686;51.716;7.016;2023-05-10T12:08:29;17.40;84.80
71837;DHT22;59686;51.716;7.016;2023-05-10T12:11:06;17.50;84.80
71837;DHT22;59686;51.716;7.016;2023-05-10T12:13:32;17.50;84.70
71837;DHT22;59686;51.716;7.016;2023-05-10T12:18:40;17.60;84.70
71837;DHT22;59686;51.716;7.016;2023-05-10T12:21:06;17.50;84.70
71837;DHT22;59686;51.716;7.016;2023-05-10T12:23:32;17.60;84.70
71837;DHT22;59686;51.716;7.016;2023-05-10T12:26:04;17.60;84.50
71837;DHT22;59686;51.716;7.016;2023-05-10T12:28:31;17.70;84.40
71837;DHT22;59686;51.716;7.016;2023-05-10T12:31:00;17.60;84.30
71837;DHT22;59686;51.716;7.016;2023-05-10T12:33:26;17.60;84.30
71837;DHT22;59686;51.716;7.016;2023-05-10T12:35:53;17.70;84.10
71837;DHT22;59686;51.716;7.016;2023-05-10T12:38:32;17.70;83.60
71837;DHT22;59686;51.716;7.016;2023-05-10T12:40:59;17.70;83.60
71837;DHT22;59686;51.716;7.016;2023-05-10T12:43:25;17.80;83.60
71837;DHT22;59686;51.716;7.016;2023-05-10T12:45:51;17.80;83.50
71837;DHT22;59686;51.716;7.016;2023-05-10T12:48:17;17.80;83.50
71837;DHT22;59686;51.716;7.016;2023-05-10T12:50:42;17.80;83.30
71837;DHT22;59686;51.716;7.016;2023-05-10T12:53:10;17.80;83.30
71837;DHT22;59686;51.716;7.016;2023-05-10T12:55:36;17.90;83.40
71837;DHT22;59686;51.716;7.016;2023-05-10T12:58:02;17.80;83.30
71837;DHT22;59686;51.716;7.016;2023-05-10T13:00:27;17.80;83.40
71837;DHT22;59686;51.716;7.016;2023-05-10T13:02:54;17.90;83.40
71837;DHT22;59686;51.716;7.016;2023-05-10T13:05:19;17.90;83.30
71837;DHT22;59686;51.716;7.016;2023-05-10T13:07:45;17.90;83.20
71837;DHT22;59686;51.716;7.016;2023-05-10T13:10:11;17.90;83.00
71837;DHT22;59686;51.716;7.016;2023-05-10T13:12:36;18.00;83.00
71837;DHT22;59686;51.716;7.016;2023-05-10T13:15:02;18.00;82.80
71837;DHT22;59686;51.716;7.016;2023-05-10T13:17:28;18.00;82.80
71837;DHT22;59686;51.716;7.016;2023-05-10T13:19:54;18.10;82.50
71837;DHT22;59686;51.716;7.016;2023-05-10T13:22:20;18.10;82.40
71837;DHT22;59686;51.716;7.016;2023-05-10T13:24:46;18.10;82.10
71837;DHT22;59686;51.716;7.016;2023-05-10T13:27:11;18.00;82.30
71837;DHT22;59686;51.716;7.016;2023-05-10T13:29:37;18.00;82.50
71837;DHT22;59686;51.716;7.016;2023-05-10T13:32:03;18.00;82.70
71837;DHT22;59686;51.716;7.016;2023-05-10T13:34:28;17.90;82.70
71837;DHT22;59686;51.716;7.016;2023-05-10T13:36:55;17.90;82.80
71837;DHT22;59686;51.716;7.016;2023-05-10T13:39:22;17.90;82.80
71837;DHT22;59686;51.716;7.016;2023-05-10T13:41:48;17.90;82.90
71837;DHT22;59686;51.716;7.016;2023-05-10T13:44:14;17.90;82.80
71837;DHT22;59686;51.716;7.016;2023-05-10T13:46:40;17.90;83.40
71837;DHT22;59686;51.716;7.016;2023-05-10T13:49:08;17.90;82.80
71837;DHT22;59686;51.716;7.016;2023-05-10T13:51:35;17.70;82.70
71837;DHT22;59686;51.716;7.016;2023-05-10T13:54:02;17.80;82.80
71837;DHT22;59686;51.716;7.016;2023-05-10T13:56:28;17.80;82.70
71837;DHT22;59686;51.716;7.016;2023-05-10T13:58:53;17.80;82.70
71837;DHT22;59686;51.716;7.016;2023-05-10T14:01:21;17.90;82.60
71837;DHT22;59686;51.716;7.016;2023-05-10T14:03:47;18.00;82.40
71837;DHT22;59686;51.716;7.016;2023-05-10T14:06:13;18.10;82.10
71837;DHT22;59686;51.716;7.016;2023-05-10T14:08:39;18.10;81.80
71837;DHT22;59686;51.716;7.016;2023-05-10T14:11:04;18.20;81.60
71837;DHT22;59686;51.716;7.016;2023-05-10T14:13:36;18.20;81.50
71837;DHT22;59686;51.716;7.016;2023-05-10T14:16:02;18.20;81.60
71837;DHT22;59686;51.716;7.016;2023-05-10T14:18:28;18.20;81.70
71837;DHT22;59686;51.716;7.016;2023-05-10T14:20:54;18.20;81.80
71837;DHT22;59686;51.716;7.016;2023-05-10T14:23:22;18.10;81.80
71837;DHT22;59686;51.716;7.016;2023-05-10T14:25:52;18.10;81.90
71837;DHT22;59686;51.716;7.016;2023-05-10T14:28:18;18.10;81.90
71837;DHT22;59686;51.716;7.016;2023-05-10T14:30:46;18.10;81.80
71837;DHT22;59686;51.716;7.016;2023-05-10T14:33:11;18.00;81.70
71837;DHT22;59686;51.716;7.016;2023-05-10T14:35:38;18.10;81.50
71837;DHT22;59686;51.716;7.016;2023-05-10T14:38:03;18.10;81.30
71837;DHT22;59686;51.716;7.016;2023-05-10T14:40:29;18.10;81.20
71837;DHT22;59686;51.716;7.016;2023-05-10T14:42:57;18.20;81.00
71837;DHT22;59686;51.716;7.016;2023-05-10T14:45:23;18.20;81.10
71837;DHT22;59686;51.716;7.016;2023-05-10T14:47:49;18.30;81.30
71837;DHT22;59686;51.716;7.016;2023-05-10T14:50:15;18.30;81.30
71837;DHT22;59686;51.716;7.016;2023-05-10T14:52:43;18.20;81.20
71837;DHT22;59686;51.716;7.016;2023-05-10T14:55:09;18.20;81.00
71837;DHT22;59686;51.716;7.016;2023-05-10T14:57:35;18.20;80.80
71837;DHT22;59686;51.716;7.016;2023-05-10T15:00:02;18.30;80.40
71837;DHT22;59686;51.716;7.016;2023-05-10T15:02:28;18.30;80.40
71837;DHT22;59686;51.716;7.016;2023-05-10T15:04:53;18.40;80.20
71837;DHT22;59686;51.716;7.016;2023-05-10T15:07:25;18.40;80.10
71837;DHT22;59686;51.716;7.016;2023-05-10T15:09:51;18.50;80.10
71837;DHT22;59686;51.716;7.016;2023-05-10T15:12:20;18.50;80.20
71837;DHT22;59686;51.716;7.016;2023-05-10T15:14:46;18.50;80.40
71837;DHT22;59686;51.716;7.016;2023-05-10T15:17:12;18.50;80.50
71837;DHT22;59686;51.716;7.016;2023-05-10T15:19:37;18.40;80.50
71837;DHT22;59686;51.716;7.016;2023-05-10T15:22:04;18.40;80.60
71837;DHT22;59686;51.716;7.016;2023-05-10T15:24:31;18.40;80.70
71837;DHT22;59686;51.716;7.016;2023-05-10T15:26:56;18.40;80.80
71837;DHT22;59686;51.716;7.016;2023-05-10T15:29:22;18.40;80.90
71837;DHT22;59686;51.716;7.016;2023-05-10T15:31:49;18.40;80.90
71837;DHT22;59686;51.716;7.016;2023-05-10T15:34:15;18.40;81.00
71837;DHT22;59686;51.716;7.016;2023-05-10T15:36:41;18.50;80.90
71837;DHT22;59686;51.716;7.016;2023-05-10T15:39:07;18.40;80.40
71837;DHT22;59686;51.716;7.016;2023-05-10T15:41:34;18.50;80.20
71837;DHT22;59686;51.716;7.016;2023-05-10T15:44:00;18.60;79.80
71837;DHT22;59686;51.716;7.016;2023-05-10T15:46:27;18.70;79.10
71837;DHT22;59686;51.716;7.016;2023-05-10T15:48:53;18.70;78.80
71837;DHT22;59686;51.716;7.016;2023-05-10T15:51:18;18.70;78.60
71837;DHT22;59686;51.716;7.016;2023-05-10T15:53:44;18.80;78.70
71837;DHT22;59686;51.716;7.016;2023-05-10T15:56:10;18.80;78.90
71837;DHT22;59686;51.716;7.016;2023-05-10T15:58:37;18.90;78.30
71837;DHT22;59686;51.716;7.016;2023-05-10T16:01:03;18.80;78.50
71837;DHT22;59686;51.716;7.016;2023-05-10T16:03:30;18.80;79.00
71837;DHT22;59686;51.716;7.016;2023-05-10T16:05:56;18.70;79.50
71837;DHT22;59686;51.716;7.016;2023-05-10T16:08:23;18.70;79.70